L'Anse-Saint-Jean, Canada
Current Conditions -  °F | °C
As of 10:00 AM on Sunday 21 Dec 2014 (Local Time) from CYBG Reporting Station
Light Snow Light Snow  
Wind Chill:   Ceiling: 1200
Heat Index:   Visibility: 4mi
Dew Point:   Wind: 0mph
Humidity: 85%   Direction: NA
Pressure: 30.38"   Gusts: NA
Location:  48.23°N, 70.18°W
Report Text: CYBG 211500Z 00000KT 4SM -SN FEW008 BKN012 M15/M17 A3038 RMK SF2SF5 SLP304
Loading
Personal Weather Stations






























Interactive Weather Map New forecast layout! Learn more

10-Day Weather Forecast

Advertisements
Track Severe Weather on mobile